sensor_id;sensor_type;location;lat;lon;timestamp;temperature;humidity
11122;DHT22;5615;49.304;10.576;2023-12-20T00:00:27;5.20;99.90
11122;DHT22;5615;49.304;10.576;2023-12-20T00:02:53;5.20;99.90
11122;DHT22;5615;49.304;10.576;2023-12-20T00:05:20;5.20;99.90
11122;DHT22;5615;49.304;10.576;2023-12-20T00:07:46;5.20;99.90
11122;DHT22;5615;49.304;10.576;2023-12-20T00:10:13;5.10;99.90
11122;DHT22;5615;49.304;10.576;2023-12-20T00:12:40;5.10;99.90
11122;DHT22;5615;49.304;10.576;2023-12-20T00:15:07;5.10;99.90
11122;DHT22;5615;49.304;10.576;2023-12-20T00:17:35;5.10;99.90
11122;DHT22;5615;49.304;10.576;2023-12-20T00:20:02;5.10;99.90
11122;DHT22;5615;49.304;10.576;2023-12-20T00:22:29;5.10;99.90
11122;DHT22;5615;49.304;10.576;2023-12-20T00:24:55;5.00;99.90
11122;DHT22;5615;49.304;10.576;2023-12-20T00:27:22;5.00;99.90
11122;DHT22;5615;49.304;10.576;2023-12-20T00:29:49;5.00;99.90
11122;DHT22;5615;49.304;10.576;2023-12-20T00:32:16;5.00;99.90
11122;DHT22;5615;49.304;10.576;2023-12-20T00:34:44;4.90;99.90
11122;DHT22;5615;49.304;10.576;2023-12-20T00:37:11;4.90;99.90
11122;DHT22;5615;49.304;10.576;2023-12-20T00:39:38;4.90;99.90
11122;DHT22;5615;49.304;10.576;2023-12-20T00:42:05;4.90;99.90
11122;DHT22;5615;49.304;10.576;2023-12-20T00:44:31;4.90;99.90
11122;DHT22;5615;49.304;10.576;2023-12-20T00:46:58;4.90;99.90
11122;DHT22;5615;49.304;10.576;2023-12-20T00:49:25;4.90;99.90
11122;DHT22;5615;49.304;10.576;2023-12-20T00:51:53;4.90;99.90
11122;DHT22;5615;49.304;10.576;2023-12-20T00:54:19;4.90;99.90
11122;DHT22;5615;49.304;10.576;2023-12-20T00:56:46;4.90;99.90
11122;DHT22;5615;49.304;10.576;2023-12-20T00:59:13;5.00;99.90
11122;DHT22;5615;49.304;10.576;2023-12-20T01:01:40;5.00;99.90
11122;DHT22;5615;49.304;10.576;2023-12-20T01:04:07;5.00;99.90
11122;DHT22;5615;49.304;10.576;2023-12-20T01:06:34;5.00;99.90
11122;DHT22;5615;49.304;10.576;2023-12-20T01:09:02;5.00;99.90
11122;DHT22;5615;49.304;10.576;2023-12-20T01:11:29;5.00;99.90
11122;DHT22;5615;49.304;10.576;2023-12-20T01:13:55;5.00;99.90
11122;DHT22;5615;49.304;10.576;2023-12-20T01:16:22;5.00;99.90
11122;DHT22;5615;49.304;10.576;2023-12-20T01:18:49;5.00;99.90
11122;DHT22;5615;49.304;10.576;2023-12-20T01:21:15;4.90;99.90
11122;DHT22;5615;49.304;10.576;2023-12-20T01:23:42;4.90;99.90
11122;DHT22;5615;49.304;10.576;2023-12-20T01:26:10;4.90;99.90
11122;DHT22;5615;49.304;10.576;2023-12-20T01:28:37;4.90;99.90
11122;DHT22;5615;49.304;10.576;2023-12-20T01:31:04;4.90;99.90
11122;DHT22;5615;49.304;10.576;2023-12-20T01:33:31;4.90;99.90
11122;DHT22;5615;49.304;10.576;2023-12-20T01:35:58;4.90;99.90
11122;DHT22;5615;49.304;10.576;2023-12-20T01:38:24;4.90;99.90
11122;DHT22;5615;49.304;10.576;2023-12-20T01:40:51;4.90;99.90
11122;DHT22;5615;49.304;10.576;2023-12-20T01:43:19;4.90;99.90
11122;DHT22;5615;49.304;10.576;2023-12-20T01:45:46;4.90;99.90
11122;DHT22;5615;49.304;10.576;2023-12-20T01:48:15;4.80;99.90
11122;DHT22;5615;49.304;10.576;2023-12-20T01:50:43;4.80;99.90
11122;DHT22;5615;49.304;10.576;2023-12-20T01:53:12;4.80;99.90
11122;DHT22;5615;49.304;10.576;2023-12-20T01:55:40;4.80;99.90
11122;DHT22;5615;49.304;10.576;2023-12-20T01:58:07;4.70;99.90
11122;DHT22;5615;49.304;10.576;2023-12-20T02:00:36;4.70;99.90
11122;DHT22;5615;49.304;10.576;2023-12-20T02:03:03;4.70;99.90
11122;DHT22;5615;49.304;10.576;2023-12-20T02:05:31;4.60;99.90
11122;DHT22;5615;49.304;10.576;2023-12-20T02:07:58;4.60;99.90
11122;DHT22;5615;49.304;10.576;2023-12-20T02:10:25;4.50;99.90
11122;DHT22;5615;49.304;10.576;2023-12-20T02:12:51;4.40;99.90
11122;DHT22;5615;49.304;10.576;2023-12-20T02:15:18;4.30;99.90
11122;DHT22;5615;49.304;10.576;2023-12-20T02:17:46;4.30;99.90
11122;DHT22;5615;49.304;10.576;2023-12-20T02:20:13;4.20;99.90
11122;DHT22;5615;49.304;10.576;2023-12-20T02:22:41;4.10;99.90
11122;DHT22;5615;49.304;10.576;2023-12-20T02:25:08;4.10;99.90
11122;DHT22;5615;49.304;10.576;2023-12-20T02:27:35;4.00;99.90
11122;DHT22;5615;49.304;10.576;2023-12-20T02:30:02;3.90;99.90
11122;DHT22;5615;49.304;10.576;2023-12-20T02:32:29;3.90;99.90
11122;DHT22;5615;49.304;10.576;2023-12-20T02:34:56;3.90;99.90
11122;DHT22;5615;49.304;10.576;2023-12-20T02:37:22;3.90;99.90
11122;DHT22;5615;49.304;10.576;2023-12-20T02:39:50;3.90;99.90
11122;DHT22;5615;49.304;10.576;2023-12-20T02:42:17;3.80;99.90
11122;DHT22;5615;49.304;10.576;2023-12-20T02:44:44;3.80;99.90
11122;DHT22;5615;49.304;10.576;2023-12-20T02:47:10;3.80;99.90
11122;DHT22;5615;49.304;10.576;2023-12-20T02:49:37;3.80;99.90
11122;DHT22;5615;49.304;10.576;2023-12-20T02:52:04;3.80;99.90
11122;DHT22;5615;49.304;10.576;2023-12-20T02:54:31;3.80;99.90
11122;DHT22;5615;49.304;10.576;2023-12-20T02:56:59;3.80;99.90
11122;DHT22;5615;49.304;10.576;2023-12-20T02:59:26;3.70;99.90
11122;DHT22;5615;49.304;10.576;2023-12-20T03:01:52;3.70;99.90
11122;DHT22;5615;49.304;10.576;2023-12-20T03:04:19;3.80;99.90
11122;DHT22;5615;49.304;10.576;2023-12-20T03:06:46;3.80;99.90
11122;DHT22;5615;49.304;10.576;2023-12-20T03:09:12;3.80;99.90
11122;DHT22;5615;49.304;10.576;2023-12-20T03:11:39;3.80;99.90
11122;DHT22;5615;49.304;10.576;2023-12-20T03:14:07;3.80;99.90
11122;DHT22;5615;49.304;10.576;2023-12-20T03:16:33;3.80;99.90
11122;DHT22;5615;49.304;10.576;2023-12-20T03:19:00;3.80;99.90
11122;DHT22;5615;49.304;10.576;2023-12-20T03:21:27;3.80;99.90
11122;DHT22;5615;49.304;10.576;2023-12-20T03:23:53;3.80;99.90
11122;DHT22;5615;49.304;10.576;2023-12-20T03:26:20;3.80;99.90
11122;DHT22;5615;49.304;10.576;2023-12-20T03:28:47;3.80;99.90
11122;DHT22;5615;49.304;10.576;2023-12-20T03:31:16;3.80;99.90
11122;DHT22;5615;49.304;10.576;2023-12-20T03:33:42;3.80;99.90
11122;DHT22;5615;49.304;10.576;2023-12-20T03:36:09;3.80;99.90
11122;DHT22;5615;49.304;10.576;2023-12-20T03:38:36;3.80;99.90
11122;DHT22;5615;49.304;10.576;2023-12-20T03:41:03;3.80;99.90
11122;DHT22;5615;49.304;10.576;2023-12-20T03:43:29;3.80;99.90
11122;DHT22;5615;49.304;10.576;2023-12-20T03:45:56;3.80;99.90
11122;DHT22;5615;49.304;10.576;2023-12-20T03:48:25;3.80;99.90
11122;DHT22;5615;49.304;10.576;2023-12-20T03:50:52;3.80;99.90
11122;DHT22;5615;49.304;10.576;2023-12-20T03:53:18;3.80;99.90
11122;DHT22;5615;49.304;10.576;2023-12-20T03:55:45;3.70;99.90
11122;DHT22;5615;49.304;10.576;2023-12-20T03:58:12;3.70;99.90
11122;DHT22;5615;49.304;10.576;2023-12-20T04:00:38;3.70;99.90
11122;DHT22;5615;49.304;10.576;2023-12-20T04:03:05;3.70;99.90
11122;DHT22;5615;49.304;10.576;2023-12-20T04:05:33;3.70;99.90
11122;DHT22;5615;49.304;10.576;2023-12-20T04:08:01;3.70;99.90
11122;DHT22;5615;49.304;10.576;2023-12-20T04:10:28;3.70;99.90
11122;DHT22;5615;49.304;10.576;2023-12-20T04:12:55;3.70;99.90
11122;DHT22;5615;49.304;10.576;2023-12-20T04:15:21;3.70;99.90
11122;DHT22;5615;49.304;10.576;2023-12-20T04:17:48;3.70;99.90
11122;DHT22;5615;49.304;10.576;2023-12-20T04:20:15;3.70;99.90
11122;DHT22;5615;49.304;10.576;2023-12-20T04:22:43;3.60;99.90
11122;DHT22;5615;49.304;10.576;2023-12-20T04:25:09;3.60;99.90
11122;DHT22;5615;49.304;10.576;2023-12-20T04:27:36;3.60;99.90
11122;DHT22;5615;49.304;10.576;2023-12-20T04:30:03;3.60;99.90
11122;DHT22;5615;49.304;10.576;2023-12-20T04:32:30;3.50;99.90
11122;DHT22;5615;49.304;10.576;2023-12-20T04:34:57;3.60;99.90
11122;DHT22;5615;49.304;10.576;2023-12-20T04:37:23;3.60;99.90
11122;DHT22;5615;49.304;10.576;2023-12-20T04:39:51;3.50;99.90
11122;DHT22;5615;49.304;10.576;2023-12-20T04:42:18;3.50;99.90
11122;DHT22;5615;49.304;10.576;2023-12-20T04:44:45;3.50;99.90
11122;DHT22;5615;49.304;10.576;2023-12-20T04:47:11;3.50;99.90
11122;DHT22;5615;49.304;10.576;2023-12-20T04:49:38;3.50;99.90
11122;DHT22;5615;49.304;10.576;2023-12-20T04:52:05;3.50;99.90
11122;DHT22;5615;49.304;10.576;2023-12-20T04:54:32;3.50;99.90
11122;DHT22;5615;49.304;10.576;2023-12-20T04:57:00;3.50;99.90
11122;DHT22;5615;49.304;10.576;2023-12-20T04:59:26;3.40;99.90
11122;DHT22;5615;49.304;10.576;2023-12-20T05:01:53;3.40;99.90
11122;DHT22;5615;49.304;10.576;2023-12-20T05:04:20;3.50;99.90
11122;DHT22;5615;49.304;10.576;2023-12-20T05:06:46;3.40;99.90
11122;DHT22;5615;49.304;10.576;2023-12-20T05:09:15;3.40;99.90
11122;DHT22;5615;49.304;10.576;2023-12-20T05:11:41;3.40;99.90
11122;DHT22;5615;49.304;10.576;2023-12-20T05:14:09;3.30;99.90
11122;DHT22;5615;49.304;10.576;2023-12-20T05:16:36;3.30;99.90
11122;DHT22;5615;49.304;10.576;2023-12-20T05:19:03;3.30;99.90
11122;DHT22;5615;49.304;10.576;2023-12-20T05:21:32;3.30;99.90
11122;DHT22;5615;49.304;10.576;2023-12-20T05:23:58;3.30;99.90
11122;DHT22;5615;49.304;10.576;2023-12-20T05:26:25;3.30;99.90
11122;DHT22;5615;49.304;10.576;2023-12-20T05:28:52;3.30;99.90
11122;DHT22;5615;49.304;10.576;2023-12-20T05:31:20;3.30;99.90
11122;DHT22;5615;49.304;10.576;2023-12-20T05:33:47;3.30;99.90
11122;DHT22;5615;49.304;10.576;2023-12-20T05:36:13;3.30;99.90
11122;DHT22;5615;49.304;10.576;2023-12-20T05:38:40;3.30;99.90
11122;DHT22;5615;49.304;10.576;2023-12-20T05:41:07;3.30;99.90
11122;DHT22;5615;49.304;10.576;2023-12-20T05:43:34;3.30;99.90
11122;DHT22;5615;49.304;10.576;2023-12-20T05:46:00;3.30;99.90
11122;DHT22;5615;49.304;10.576;2023-12-20T05:48:28;3.30;99.90
11122;DHT22;5615;49.304;10.576;2023-12-20T05:50:55;3.30;99.90
11122;DHT22;5615;49.304;10.576;2023-12-20T05:53:22;3.40;99.90
11122;DHT22;5615;49.304;10.576;2023-12-20T05:55:48;3.40;99.90
11122;DHT22;5615;49.304;10.576;2023-12-20T05:58:15;3.40;99.90
11122;DHT22;5615;49.304;10.576;2023-12-20T06:00:42;3.50;99.90
11122;DHT22;5615;49.304;10.576;2023-12-20T06:03:08;3.50;99.90
11122;DHT22;5615;49.304;10.576;2023-12-20T06:05:36;3.50;99.90
11122;DHT22;5615;49.304;10.576;2023-12-20T06:08:03;3.50;99.90
11122;DHT22;5615;49.304;10.576;2023-12-20T06:10:30;3.50;99.90
11122;DHT22;5615;49.304;10.576;2023-12-20T06:12:57;3.60;99.90
11122;DHT22;5615;49.304;10.576;2023-12-20T06:15:24;3.50;99.90
11122;DHT22;5615;49.304;10.576;2023-12-20T06:17:51;3.60;99.90
11122;DHT22;5615;49.304;10.576;2023-12-20T06:20:17;3.60;99.90
11122;DHT22;5615;49.304;10.576;2023-12-20T06:22:45;3.60;99.90
11122;DHT22;5615;49.304;10.576;2023-12-20T06:25:12;3.60;99.90
11122;DHT22;5615;49.304;10.576;2023-12-20T06:27:39;3.70;99.90
11122;DHT22;5615;49.304;10.576;2023-12-20T06:30:07;3.60;99.90
11122;DHT22;5615;49.304;10.576;2023-12-20T06:32:35;3.70;99.90
11122;DHT22;5615;49.304;10.576;2023-12-20T06:35:03;3.60;99.90
11122;DHT22;5615;49.304;10.576;2023-12-20T06:37:30;3.60;99.90
11122;DHT22;5615;49.304;10.576;2023-12-20T06:39:58;3.70;99.90
11122;DHT22;5615;49.304;10.576;2023-12-20T06:42:25;3.70;99.90
11122;DHT22;5615;49.304;10.576;2023-12-20T06:44:52;3.70;99.90
11122;DHT22;5615;49.304;10.576;2023-12-20T06:47:18;3.70;99.90
11122;DHT22;5615;49.304;10.576;2023-12-20T06:49:45;3.70;99.90
11122;DHT22;5615;49.304;10.576;2023-12-20T06:52:12;3.70;99.90
11122;DHT22;5615;49.304;10.576;2023-12-20T06:54:39;3.80;99.90
11122;DHT22;5615;49.304;10.576;2023-12-20T06:57:07;3.80;99.90
11122;DHT22;5615;49.304;10.576;2023-12-20T06:59:38;3.80;99.90
11122;DHT22;5615;49.304;10.576;2023-12-20T07:02:05;3.80;99.90
11122;DHT22;5615;49.304;10.576;2023-12-20T07:04:32;3.80;99.90
11122;DHT22;5615;49.304;10.576;2023-12-20T07:06:58;3.80;99.90
11122;DHT22;5615;49.304;10.576;2023-12-20T07:09:26;3.90;99.90
11122;DHT22;5615;49.304;10.576;2023-12-20T07:11:52;3.90;99.90
11122;DHT22;5615;49.304;10.576;2023-12-20T07:14:20;3.90;99.90
11122;DHT22;5615;49.304;10.576;2023-12-20T07:16:47;3.90;99.90
11122;DHT22;5615;49.304;10.576;2023-12-20T07:19:14;3.90;99.90
11122;DHT22;5615;49.304;10.576;2023-12-20T07:21:40;4.00;99.90
11122;DHT22;5615;49.304;10.576;2023-12-20T07:24:07;4.00;99.90
11122;DHT22;5615;49.304;10.576;2023-12-20T07:26:34;4.00;99.90
11122;DHT22;5615;49.304;10.576;2023-12-20T07:29:03;3.90;99.90
11122;DHT22;5615;49.304;10.576;2023-12-20T07:31:31;4.00;99.90
11122;DHT22;5615;49.304;10.576;2023-12-20T07:33:57;4.10;99.90
11122;DHT22;5615;49.304;10.576;2023-12-20T07:36:24;4.10;99.90
11122;DHT22;5615;49.304;10.576;2023-12-20T07:38:51;4.10;99.90
11122;DHT22;5615;49.304;10.576;2023-12-20T07:41:17;4.10;99.90
11122;DHT22;5615;49.304;10.576;2023-12-20T07:43:46;4.10;99.90
11122;DHT22;5615;49.304;10.576;2023-12-20T07:46:13;4.10;99.90
11122;DHT22;5615;49.304;10.576;2023-12-20T07:48:41;4.10;99.90
11122;DHT22;5615;49.304;10.576;2023-12-20T07:51:07;4.10;99.90
11122;DHT22;5615;49.304;10.576;2023-12-20T07:53:35;4.10;99.90
11122;DHT22;5615;49.304;10.576;2023-12-20T07:56:12;4.10;99.90
11122;DHT22;5615;49.304;10.576;2023-12-20T07:58:39;4.10;99.90
11122;DHT22;5615;49.304;10.576;2023-12-20T08:01:06;4.20;99.90
11122;DHT22;5615;49.304;10.576;2023-12-20T08:03:32;4.10;99.90
11122;DHT22;5615;49.304;10.576;2023-12-20T08:06:01;4.10;99.90
11122;DHT22;5615;49.304;10.576;2023-12-20T08:08:28;4.10;99.90
11122;DHT22;5615;49.304;10.576;2023-12-20T08:10:55;4.10;99.90
11122;DHT22;5615;49.304;10.576;2023-12-20T08:13:23;4.20;99.90
11122;DHT22;5615;49.304;10.576;2023-12-20T08:15:51;4.20;99.90
11122;DHT22;5615;49.304;10.576;2023-12-20T08:18:18;4.20;99.90
11122;DHT22;5615;49.304;10.576;2023-12-20T08:20:45;4.30;99.90
11122;DHT22;5615;49.304;10.576;2023-12-20T08:23:14;4.30;99.90
11122;DHT22;5615;49.304;10.576;2023-12-20T08:25:41;4.30;99.90
11122;DHT22;5615;49.304;10.576;2023-12-20T08:28:08;4.30;99.90
11122;DHT22;5615;49.304;10.576;2023-12-20T08:30:35;4.40;99.90
11122;DHT22;5615;49.304;10.576;2023-12-20T08:33:02;4.40;99.90
11122;DHT22;5615;49.304;10.576;2023-12-20T08:35:28;4.40;99.90
11122;DHT22;5615;49.304;10.576;2023-12-20T08:37:56;4.40;99.90
11122;DHT22;5615;49.304;10.576;2023-12-20T08:40:24;4.40;99.90
11122;DHT22;5615;49.304;10.576;2023-12-20T08:42:51;4.50;99.90
11122;DHT22;5615;49.304;10.576;2023-12-20T08:45:17;4.60;99.90
11122;DHT22;5615;49.304;10.576;2023-12-20T08:47:44;4.70;99.90
11122;DHT22;5615;49.304;10.576;2023-12-20T08:50:11;4.70;99.90
11122;DHT22;5615;49.304;10.576;2023-12-20T08:52:37;4.70;99.90
11122;DHT22;5615;49.304;10.576;2023-12-20T08:55:05;4.70;99.90
11122;DHT22;5615;49.304;10.576;2023-12-20T08:57:33;4.80;99.90
11122;DHT22;5615;49.304;10.576;2023-12-20T09:00:00;4.70;99.90
11122;DHT22;5615;49.304;10.576;2023-12-20T09:02:26;4.70;99.90
11122;DHT22;5615;49.304;10.576;2023-12-20T09:04:54;4.80;99.90
11122;DHT22;5615;49.304;10.576;2023-12-20T09:07:22;4.80;99.90
11122;DHT22;5615;49.304;10.576;2023-12-20T09:09:48;4.70;99.90
11122;DHT22;5615;49.304;10.576;2023-12-20T09:12:16;4.80;99.90
11122;DHT22;5615;49.304;10.576;2023-12-20T09:14:45;4.70;99.90
11122;DHT22;5615;49.304;10.576;2023-12-20T09:17:11;4.80;99.90
11122;DHT22;5615;49.304;10.576;2023-12-20T09:19:38;4.70;99.90
11122;DHT22;5615;49.304;10.576;2023-12-20T09:22:06;4.80;99.90
11122;DHT22;5615;49.304;10.576;2023-12-20T09:24:32;4.80;99.90
11122;DHT22;5615;49.304;10.576;2023-12-20T09:26:59;4.80;99.90
11122;DHT22;5615;49.304;10.576;2023-12-20T09:29:26;4.70;99.90
11122;DHT22;5615;49.304;10.576;2023-12-20T09:31:53;4.80;99.90
11122;DHT22;5615;49.304;10.576;2023-12-20T09:34:20;4.70;99.90
11122;DHT22;5615;49.304;10.576;2023-12-20T09:36:47;4.80;99.90
11122;DHT22;5615;49.304;10.576;2023-12-20T09:39:14;4.70;99.90
11122;DHT22;5615;49.304;10.576;2023-12-20T09:41:43;4.80;99.90
11122;DHT22;5615;49.304;10.576;2023-12-20T09:44:14;4.90;99.90
11122;DHT22;5615;49.304;10.576;2023-12-20T09:46:43;5.00;99.90
11122;DHT22;5615;49.304;10.576;2023-12-20T09:49:13;5.10;99.90
11122;DHT22;5615;49.304;10.576;2023-12-20T09:51:40;5.20;99.90
11122;DHT22;5615;49.304;10.576;2023-12-20T09:54:07;5.30;99.90
11122;DHT22;5615;49.304;10.576;2023-12-20T09:56:33;5.30;99.90
11122;DHT22;5615;49.304;10.576;2023-12-20T09:59:00;5.50;99.90
11122;DHT22;5615;49.304;10.576;2023-12-20T10:01:28;5.60;99.90
11122;DHT22;5615;49.304;10.576;2023-12-20T10:03:55;5.90;99.90
11122;DHT22;5615;49.304;10.576;2023-12-20T10:06:23;6.10;99.90
11122;DHT22;5615;49.304;10.576;2023-12-20T10:08:50;6.30;99.90
11122;DHT22;5615;49.304;10.576;2023-12-20T10:11:16;6.20;99.90
11122;DHT22;5615;49.304;10.576;2023-12-20T10:13:43;6.40;99.90
11122;DHT22;5615;49.304;10.576;2023-12-20T10:16:10;6.40;99.90
11122;DHT22;5615;49.304;10.576;2023-12-20T10:18:36;6.30;99.90
11122;DHT22;5615;49.304;10.576;2023-12-20T10:21:03;5.90;99.90
11122;DHT22;5615;49.304;10.576;2023-12-20T10:23:31;5.60;99.90
11122;DHT22;5615;49.304;10.576;2023-12-20T10:25:58;5.50;99.90
11122;DHT22;5615;49.304;10.576;2023-12-20T10:28:25;5.40;99.90
11122;DHT22;5615;49.304;10.576;2023-12-20T10:30:53;5.30;99.90
11122;DHT22;5615;49.304;10.576;2023-12-20T10:33:24;5.10;99.90
11122;DHT22;5615;49.304;10.576;2023-12-20T10:35:52;5.10;99.90
11122;DHT22;5615;49.304;10.576;2023-12-20T10:38:19;5.10;99.90
11122;DHT22;5615;49.304;10.576;2023-12-20T10:40:47;5.00;99.90
11122;DHT22;5615;49.304;10.576;2023-12-20T10:43:14;4.90;99.90
11122;DHT22;5615;49.304;10.576;2023-12-20T10:45:42;4.90;99.90
11122;DHT22;5615;49.304;10.576;2023-12-20T10:48:10;4.90;99.90
11122;DHT22;5615;49.304;10.576;2023-12-20T10:50:38;4.80;99.90
11122;DHT22;5615;49.304;10.576;2023-12-20T10:53:06;4.80;99.90
11122;DHT22;5615;49.304;10.576;2023-12-20T10:55:33;4.80;99.90
11122;DHT22;5615;49.304;10.576;2023-12-20T10:58:07;4.80;99.90
11122;DHT22;5615;49.304;10.576;2023-12-20T11:00:36;4.80;99.90
11122;DHT22;5615;49.304;10.576;2023-12-20T11:03:06;4.90;99.90
11122;DHT22;5615;49.304;10.576;2023-12-20T11:05:50;4.90;99.90
11122;DHT22;5615;49.304;10.576;2023-12-20T11:08:24;4.80;99.90
11122;DHT22;5615;49.304;10.576;2023-12-20T11:10:59;4.90;99.90
11122;DHT22;5615;49.304;10.576;2023-12-20T11:13:31;4.80;99.90
11122;DHT22;5615;49.304;10.576;2023-12-20T11:15:59;4.80;99.90
11122;DHT22;5615;49.304;10.576;2023-12-20T11:18:28;4.70;99.90
11122;DHT22;5615;49.304;10.576;2023-12-20T11:20:56;4.80;99.90
11122;DHT22;5615;49.304;10.576;2023-12-20T11:23:26;4.90;99.90
11122;DHT22;5615;49.304;10.576;2023-12-20T11:25:56;4.90;99.90
11122;DHT22;5615;49.304;10.576;2023-12-20T11:28:25;4.90;99.90
11122;DHT22;5615;49.304;10.576;2023-12-20T11:30:54;4.90;99.90
11122;DHT22;5615;49.304;10.576;2023-12-20T11:33:22;5.00;99.90
11122;DHT22;5615;49.304;10.576;2023-12-20T11:35:49;4.90;99.90
11122;DHT22;5615;49.304;10.576;2023-12-20T11:38:16;4.80;99.90
11122;DHT22;5615;49.304;10.576;2023-12-20T11:40:44;4.80;99.90
11122;DHT22;5615;49.304;10.576;2023-12-20T11:43:10;4.70;99.90
11122;DHT22;5615;49.304;10.576;2023-12-20T11:45:37;4.70;99.90
11122;DHT22;5615;49.304;10.576;2023-12-20T11:48:06;4.80;99.90
11122;DHT22;5615;49.304;10.576;2023-12-20T11:50:33;4.70;99.90
11122;DHT22;5615;49.304;10.576;2023-12-20T11:53:00;4.70;99.90
11122;DHT22;5615;49.304;10.576;2023-12-20T11:55:27;4.70;99.90
11122;DHT22;5615;49.304;10.576;2023-12-20T11:57:53;4.80;99.90
11122;DHT22;5615;49.304;10.576;2023-12-20T12:00:20;4.70;99.90
11122;DHT22;5615;49.304;10.576;2023-12-20T12:02:57;4.70;99.90
11122;DHT22;5615;49.304;10.576;2023-12-20T12:05:26;4.80;99.90
11122;DHT22;5615;49.304;10.576;2023-12-20T12:07:53;4.80;99.90
11122;DHT22;5615;49.304;10.576;2023-12-20T12:10:19;4.90;99.90
11122;DHT22;5615;49.304;10.576;2023-12-20T12:12:46;4.90;99.90
11122;DHT22;5615;49.304;10.576;2023-12-20T12:15:13;4.90;99.90
11122;DHT22;5615;49.304;10.576;2023-12-20T12:17:40;4.80;99.90
11122;DHT22;5615;49.304;10.576;2023-12-20T12:20:08;4.80;99.90
11122;DHT22;5615;49.304;10.576;2023-12-20T12:22:36;4.90;99.90
11122;DHT22;5615;49.304;10.576;2023-12-20T12:25:10;4.90;99.90
11122;DHT22;5615;49.304;10.576;2023-12-20T12:27:39;4.90;99.90
11122;DHT22;5615;49.304;10.576;2023-12-20T12:30:06;5.00;99.90
11122;DHT22;5615;49.304;10.576;2023-12-20T12:32:33;4.90;99.90
11122;DHT22;5615;49.304;10.576;2023-12-20T12:35:00;4.80;99.90
11122;DHT22;5615;49.304;10.576;2023-12-20T12:37:29;4.80;99.90
11122;DHT22;5615;49.304;10.576;2023-12-20T12:39:57;4.70;99.90
11122;DHT22;5615;49.304;10.576;2023-12-20T12:42:23;4.70;99.90
11122;DHT22;5615;49.304;10.576;2023-12-20T12:44:54;4.70;99.90
11122;DHT22;5615;49.304;10.576;2023-12-20T12:47:20;4.60;99.90
11122;DHT22;5615;49.304;10.576;2023-12-20T12:49:47;4.60;99.90
11122;DHT22;5615;49.304;10.576;2023-12-20T12:52:14;4.60;99.90
11122;DHT22;5615;49.304;10.576;2023-12-20T12:54:41;4.60;99.90
11122;DHT22;5615;49.304;10.576;2023-12-20T12:57:09;4.60;99.90
11122;DHT22;5615;49.304;10.576;2023-12-20T12:59:36;4.70;99.90
11122;DHT22;5615;49.304;10.576;2023-12-20T13:02:02;4.70;99.90
11122;DHT22;5615;49.304;10.576;2023-12-20T13:04:29;4.80;99.90
11122;DHT22;5615;49.304;10.576;2023-12-20T13:06:56;4.80;99.90
11122;DHT22;5615;49.304;10.576;2023-12-20T13:09:23;4.70;99.90
11122;DHT22;5615;49.304;10.576;2023-12-20T13:11:50;4.70;99.90
11122;DHT22;5615;49.304;10.576;2023-12-20T13:14:18;4.70;99.90
11122;DHT22;5615;49.304;10.576;2023-12-20T13:16:44;4.70;99.90
11122;DHT22;5615;49.304;10.576;2023-12-20T13:19:11;4.60;99.90
11122;DHT22;5615;49.304;10.576;2023-12-20T13:21:38;4.60;99.90
11122;DHT22;5615;49.304;10.576;2023-12-20T13:24:05;4.60;99.90
11122;DHT22;5615;49.304;10.576;2023-12-20T13:26:32;4.60;99.90
11122;DHT22;5615;49.304;10.576;2023-12-20T13:28:59;4.60;99.90
11122;DHT22;5615;49.304;10.576;2023-12-20T13:31:27;4.50;99.90
11122;DHT22;5615;49.304;10.576;2023-12-20T13:33:53;4.50;99.90
11122;DHT22;5615;49.304;10.576;2023-12-20T13:36:20;4.50;99.90
11122;DHT22;5615;49.304;10.576;2023-12-20T13:38:47;4.50;99.90
11122;DHT22;5615;49.304;10.576;2023-12-20T13:41:13;4.50;99.90
11122;DHT22;5615;49.304;10.576;2023-12-20T13:43:40;4.40;99.90
11122;DHT22;5615;49.304;10.576;2023-12-20T13:46:08;4.30;99.90
11122;DHT22;5615;49.304;10.576;2023-12-20T13:48:36;4.10;99.90
11122;DHT22;5615;49.304;10.576;2023-12-20T13:51:03;4.10;99.90
11122;DHT22;5615;49.304;10.576;2023-12-20T13:53:31;4.00;99.90
11122;DHT22;5615;49.304;10.576;2023-12-20T13:55:58;4.00;99.90
11122;DHT22;5615;49.304;10.576;2023-12-20T13:58:25;4.00;99.90
11122;DHT22;5615;49.304;10.576;2023-12-20T14:00:54;4.10;99.90
11122;DHT22;5615;49.304;10.576;2023-12-20T14:03:21;4.10;99.90
11122;DHT22;5615;49.304;10.576;2023-12-20T14:05:49;4.20;99.90
11122;DHT22;5615;49.304;10.576;2023-12-20T14:08:15;4.20;99.90
11122;DHT22;5615;49.304;10.576;2023-12-20T14:10:42;4.10;99.90
11122;DHT22;5615;49.304;10.576;2023-12-20T14:13:08;4.00;99.90
11122;DHT22;5615;49.304;10.576;2023-12-20T14:15:35;4.00;99.90
11122;DHT22;5615;49.304;10.576;2023-12-20T14:18:04;4.00;99.90
11122;DHT22;5615;49.304;10.576;2023-12-20T14:20:31;3.90;99.90
11122;DHT22;5615;49.304;10.576;2023-12-20T14:23:01;3.90;99.90
11122;DHT22;5615;49.304;10.576;2023-12-20T14:25:27;3.90;99.90
11122;DHT22;5615;49.304;10.576;2023-12-20T14:27:54;3.90;99.90
11122;DHT22;5615;49.304;10.576;2023-12-20T14:30:21;3.90;99.90
11122;DHT22;5615;49.304;10.576;2023-12-20T14:32:47;3.90;99.90
11122;DHT22;5615;49.304;10.576;2023-12-20T14:35:14;3.80;99.90
11122;DHT22;5615;49.304;10.576;2023-12-20T14:37:41;3.90;99.90
11122;DHT22;5615;49.304;10.576;2023-12-20T14:40:10;3.90;99.90
11122;DHT22;5615;49.304;10.576;2023-12-20T14:42:40;3.90;99.90
11122;DHT22;5615;49.304;10.576;2023-12-20T14:45:07;3.90;99.90
11122;DHT22;5615;49.304;10.576;2023-12-20T14:47:34;3.90;99.90
11122;DHT22;5615;49.304;10.576;2023-12-20T14:50:02;4.00;99.90
11122;DHT22;5615;49.304;10.576;2023-12-20T14:52:29;3.90;99.90
11122;DHT22;5615;49.304;10.576;2023-12-20T14:54:55;3.90;99.90
11122;DHT22;5615;49.304;10.576;2023-12-20T14:57:23;3.90;99.90
11122;DHT22;5615;49.304;10.576;2023-12-20T14:59:50;3.90;99.90
11122;DHT22;5615;49.304;10.576;2023-12-20T15:02:16;3.90;99.90
11122;DHT22;5615;49.304;10.576;2023-12-20T15:04:43;4.00;99.90
11122;DHT22;5615;49.304;10.576;2023-12-20T15:07:10;4.00;99.90
11122;DHT22;5615;49.304;10.576;2023-12-20T15:09:36;4.00;99.90
11122;DHT22;5615;49.304;10.576;2023-12-20T15:12:04;4.00;99.90
11122;DHT22;5615;49.304;10.576;2023-12-20T15:14:32;4.00;99.90
11122;DHT22;5615;49.304;10.576;2023-12-20T15:16:58;4.00;99.90
11122;DHT22;5615;49.304;10.576;2023-12-20T15:19:25;4.00;99.90
11122;DHT22;5615;49.304;10.576;2023-12-20T15:21:52;4.00;99.90
11122;DHT22;5615;49.304;10.576;2023-12-20T15:24:18;4.10;99.90
11122;DHT22;5615;49.304;10.576;2023-12-20T15:26:52;4.00;99.90
11122;DHT22;5615;49.304;10.576;2023-12-20T15:29:19;4.00;99.90
11122;DHT22;5615;49.304;10.576;2023-12-20T15:31:47;4.00;99.90
11122;DHT22;5615;49.304;10.576;2023-12-20T15:34:15;4.00;99.90
11122;DHT22;5615;49.304;10.576;2023-12-20T15:36:42;4.00;99.90
11122;DHT22;5615;49.304;10.576;2023-12-20T15:39:08;3.90;99.90
11122;DHT22;5615;49.304;10.576;2023-12-20T15:41:35;4.00;99.90
11122;DHT22;5615;49.304;10.576;2023-12-20T15:44:02;4.00;99.90